createdAt,value
2023-01-15T10:55:45.336Z,99612.56
2023-01-15T11:00:55.274Z,99579.91
2023-01-15T11:06:00.674Z,99600.47
2023-01-15T11:11:20.930Z,99598.94
2023-01-15T11:16:43.332Z,99604.28
2023-01-15T11:21:49.218Z,99599.59
2023-01-15T11:26:57.364Z,99581.72
2023-01-15T11:32:02.498Z,99599.53
2023-01-15T11:37:08.621Z,99600.28
2023-01-15T11:42:31.927Z,99584.13
2023-01-15T11:47:49.531Z,99583.28
2023-01-15T11:52:57.602Z,99580.31
2023-01-15T11:58:05.497Z,99571.38
2023-01-15T12:03:17.142Z,99571.25
2023-01-15T12:08:31.457Z,99563.56
2023-01-15T12:13:45.299Z,99542.41
2023-01-15T12:18:59.531Z,99542.06
2023-01-15T12:24:17.288Z,99540.94
2023-01-15T12:29:27.402Z,99548.03
2023-01-15T12:34:37.926Z,99534.47
2023-01-15T12:39:48.162Z,99549.78
2023-01-15T12:45:10.459Z,99537.56
2023-01-15T12:50:31.891Z,99539.88
2023-01-15T12:55:40.728Z,99534.69
2023-01-15T13:00:48.717Z,99524.47
2023-01-15T13:05:56.467Z,99544.22
2023-01-15T13:11:01.665Z,99531.31
2023-01-15T13:16:19.021Z,99550.69
2023-01-15T13:21:25.077Z,99536.06
2023-01-15T17:28:46.574Z,99644.25
2023-01-15T17:33:52.379Z,99637.84
2023-01-15T17:38:57.736Z,99643.06
2023-01-15T17:44:06.858Z,99641.84
2023-01-15T17:49:12.143Z,99650.13
2023-01-15T17:54:37.640Z,99638.91
2023-01-15T17:59:57.792Z,99647.34
2023-01-15T18:05:15.463Z,99646.41
2023-01-15T18:10:21.267Z,99643.84
2023-01-15T18:15:29.022Z,99639.56
2023-01-15T18:20:34.368Z,99637.97
2023-01-15T18:25:45.930Z,99644.81
2023-01-15T18:30:53.658Z,99643.09
2023-01-15T18:36:06.365Z,99651.63
2023-01-15T18:41:12.801Z,99644.78
2023-01-15T18:46:33.080Z,99631.03
2023-01-15T18:51:38.211Z,99640.34
2023-01-15T18:56:47.932Z,99629.28
2023-01-15T19:01:56.467Z,99629.28
2023-01-15T19:07:03.651Z,99625.81
2023-01-15T19:12:09.683Z,99633.56
2023-01-15T19:17:31.655Z,99621.78
2023-01-15T19:22:49.286Z,99615.31
2023-01-15T19:27:55.343Z,99610.56
2023-01-15T19:33:03.044Z,99604.78
2023-01-15T19:38:10.629Z,99588.00
2023-01-15T19:43:28.268Z,99600.97
2023-01-15T19:48:48.763Z,99581.34
2023-01-15T19:53:53.833Z,99572.81
2023-01-15T19:58:59.008Z,99569.38
2023-01-15T20:04:07.484Z,99574.44
2023-01-15T20:09:12.649Z,99567.53
2023-01-15T20:14:17.941Z,99559.91
2023-01-15T20:19:25.684Z,99541.31
2023-01-15T20:24:30.740Z,99530.50
2023-01-15T20:29:35.856Z,99518.59
2023-01-15T20:34:45.101Z,99510.97
2023-01-15T20:39:50.233Z,99499.97
2023-01-15T20:44:58.095Z,99486.25
2023-01-15T20:50:06.066Z,99483.59
2023-01-15T20:55:11.849Z,99481.00
2023-01-15T21:00:19.335Z,99469.06
2023-01-15T21:05:27.638Z,99464.69
2023-01-15T21:10:32.834Z,99446.59
2023-01-15T21:15:37.914Z,99443.00
2023-01-15T21:20:46.032Z,99437.75
2023-01-15T21:25:51.497Z,99417.13
2023-01-15T21:30:56.889Z,99399.13
2023-01-15T21:36:08.348Z,99405.00
2023-01-15T21:41:15.079Z,99388.81
2023-01-15T21:46:20.567Z,99373.53
2023-01-15T21:51:28.742Z,99369.34
2023-01-15T21:56:33.896Z,99358.47
2023-01-15T22:01:39.292Z,99362.72
2023-01-15T22:06:47.289Z,99350.00
2023-01-15T22:11:52.726Z,99347.75
2023-01-15T22:16:58.568Z,99342.81
2023-01-15T22:22:08.417Z,99332.94
2023-01-15T22:27:17.051Z,99327.28
2023-01-15T22:32:22.144Z,99323.25
2023-01-15T22:37:29.880Z,99312.25
2023-01-15T22:42:35.072Z,99306.16
2023-01-15T22:47:40.241Z,99289.94
2023-01-15T22:52:48.216Z,99295.81
2023-01-15T22:57:53.317Z,99294.00
2023-01-15T23:03:05.111Z,99278.53
2023-01-15T23:08:12.839Z,99281.81
2023-01-15T23:13:17.991Z,99266.41
2023-01-15T23:18:23.075Z,99249.31
2023-01-15T23:23:30.783Z,99230.47
2023-01-15T23:28:35.954Z,99218.59
2023-01-15T23:33:40.985Z,99210.03
2023-01-15T23:38:49.359Z,99198.06
2023-01-15T23:44:06.833Z,99191.47
